createdAt,value
2023-04-15T00:00:01.327Z,30.13
2023-04-15T00:01:01.240Z,27.57
2023-04-15T00:02:13.208Z,40.53
2023-04-15T00:03:01.718Z,28.73
2023-04-15T00:04:01.389Z,24.93
2023-04-15T00:05:01.577Z,22.00
2023-04-15T00:06:01.227Z,29.50
2023-04-15T00:07:01.622Z,33.57
2023-04-15T00:08:01.748Z,39.10
2023-04-15T00:09:01.539Z,29.33
2023-04-15T00:10:01.309Z,30.67
2023-04-15T00:11:01.261Z,32.27
2023-04-15T00:12:01.237Z,23.27
2023-04-15T00:13:01.269Z,25.27
2023-04-15T00:14:01.511Z,29.00
2023-04-15T00:15:01.325Z,33.63
2023-04-15T00:16:01.766Z,39.63
2023-04-15T00:17:01.816Z,36.57
2023-04-15T00:18:01.942Z,27.77
2023-04-15T00:19:01.655Z,29.63
2023-04-15T00:20:01.204Z,30.37
2023-04-15T00:21:01.293Z,31.97
2023-04-15T00:22:01.295Z,26.87
2023-04-15T00:23:02.260Z,20.50
2023-04-15T00:24:01.220Z,22.10
2023-04-15T00:25:01.616Z,40.53
2023-04-15T00:26:01.266Z,41.47
2023-04-15T00:27:01.246Z,33.47
2023-04-15T00:28:01.272Z,26.63
2023-04-15T00:29:01.508Z,24.40
2023-04-15T00:30:01.517Z,24.93
2023-04-15T00:31:01.279Z,23.27
2023-04-15T00:32:01.635Z,28.97
2023-04-15T00:33:01.604Z,26.90
2023-04-15T00:34:01.252Z,39.63
2023-04-15T00:35:01.263Z,32.17
2023-04-15T00:36:01.616Z,30.50
2023-04-15T00:37:01.672Z,37.70
2023-04-15T00:38:01.602Z,28.47
2023-04-15T00:39:01.421Z,30.00
2023-04-15T00:40:01.626Z,31.33
2023-04-15T00:41:02.709Z,45.30
2023-04-15T00:42:01.963Z,47.60
2023-04-15T00:43:01.912Z,35.80
2023-04-15T00:44:01.915Z,27.53
2023-04-15T00:45:01.643Z,43.37
2023-04-15T00:46:04.171Z,44.43
2023-04-15T00:47:03.489Z,37.17
2023-04-15T00:48:02.513Z,28.97
2023-04-15T00:49:02.981Z,38.90
2023-04-15T00:50:01.688Z,35.97
2023-04-15T00:51:01.294Z,29.63
2023-04-15T00:52:03.227Z,30.97
2023-04-15T00:53:01.214Z,33.43
2023-04-15T00:54:02.351Z,39.40
2023-04-15T00:55:01.992Z,60.20
2023-04-15T00:56:01.269Z,53.03
2023-04-15T00:57:01.572Z,35.10
2023-04-15T00:58:01.277Z,22.97
2023-04-15T00:59:01.881Z,21.50
2023-04-15T01:00:01.782Z,23.10
2023-04-15T01:01:01.373Z,29.00
2023-04-15T01:02:01.406Z,28.83
2023-04-15T01:03:02.003Z,24.37
2023-04-15T01:04:02.049Z,26.37
2023-04-15T01:05:01.942Z,31.93
2023-04-15T01:06:04.023Z,21.47
2023-04-15T01:07:01.552Z,25.43
2023-04-15T01:08:02.096Z,28.30
2023-04-15T01:09:02.036Z,27.07
2023-04-15T01:10:02.741Z,23.87
2023-04-15T01:11:02.675Z,24.43
2023-04-15T01:12:01.630Z,23.40
2023-04-15T01:13:02.633Z,22.53
2023-04-15T01:14:02.762Z,24.27
2023-04-15T01:15:01.396Z,25.60
2023-04-15T01:16:01.940Z,29.83
2023-04-15T01:17:01.652Z,42.50
2023-04-15T01:18:02.014Z,32.87
2023-04-15T01:19:02.093Z,24.90
2023-04-15T01:20:01.857Z,23.60
2023-04-15T01:21:01.381Z,23.90
2023-04-15T01:22:02.367Z,20.70
2023-04-15T01:23:01.894Z,20.90
2023-04-15T01:24:03.564Z,22.53
2023-04-15T01:25:11.202Z,27.20
2023-04-15T01:26:01.554Z,29.50
2023-04-15T01:27:01.610Z,23.13
2023-04-15T01:28:01.953Z,23.53
2023-04-15T01:29:01.717Z,26.10
2023-04-15T01:30:01.281Z,25.73
2023-04-15T01:31:05.536Z,23.03
2023-04-15T01:32:01.514Z,23.83
2023-04-15T01:33:01.754Z,23.67
2023-04-15T01:34:01.579Z,25.93
2023-04-15T01:35:01.232Z,28.67
2023-04-15T01:36:02.266Z,25.73
2023-04-15T01:37:01.234Z,21.17
2023-04-15T01:38:05.446Z,25.63
2023-04-15T01:39:01.912Z,22.03
2023-04-15T01:40:01.695Z,23.40
2023-04-15T01:41:01.829Z,21.80
2023-04-15T01:42:01.286Z,21.10
2023-04-15T01:43:02.182Z,24.37
2023-04-15T01:44:01.599Z,22.07
2023-04-15T01:45:01.681Z,21.07
2023-04-15T01:46:01.294Z,22.93
2023-04-15T01:47:01.699Z,21.53
2023-04-15T01:48:01.584Z,21.50
2023-04-15T01:49:01.967Z,21.30
2023-04-15T01:50:01.219Z,23.50
2023-04-15T01:51:01.217Z,24.60
2023-04-15T01:52:01.521Z,25.43
2023-04-15T01:53:01.304Z,21.83
2023-04-15T01:54:01.627Z,22.73
2023-04-15T01:55:01.644Z,21.20
2023-04-15T01:56:01.593Z,22.73
2023-04-15T01:57:01.305Z,22.47
2023-04-15T01:58:01.522Z,22.77
2023-04-15T01:59:01.859Z,22.83
2023-04-15T02:00:01.301Z,23.60
2023-04-15T02:01:01.872Z,22.23
2023-04-15T02:02:01.233Z,21.53
2023-04-15T02:03:01.367Z,21.30
2023-04-15T02:04:01.601Z,20.83
2023-04-15T02:05:01.238Z,28.77
2023-04-15T02:06:01.617Z,23.93
2023-04-15T02:07:01.752Z,22.37
2023-04-15T02:08:01.283Z,21.93
2023-04-15T02:09:01.697Z,21.53
2023-04-15T02:10:01.732Z,23.03
2023-04-15T02:11:01.581Z,24.57
2023-04-15T02:12:01.591Z,22.03
2023-04-15T02:13:01.266Z,21.57
2023-04-15T02:14:01.266Z,22.00
2023-04-15T02:15:01.650Z,28.23
2023-04-15T02:16:02.740Z,22.57
2023-04-15T02:17:01.218Z,25.33
2023-04-15T02:18:01.607Z,28.77
2023-04-15T02:19:01.804Z,20.80
2023-04-15T02:20:01.971Z,21.40
2023-04-15T02:21:01.281Z,22.73
2023-04-15T02:22:01.722Z,23.23
2023-04-15T02:23:01.266Z,21.33
2023-04-15T02:24:01.224Z,22.53
2023-04-15T02:25:01.210Z,22.67
2023-04-15T02:26:01.219Z,22.27
2023-04-15T02:27:01.540Z,22.10
2023-04-15T02:28:01.274Z,21.97
2023-04-15T02:29:01.675Z,19.23
2023-04-15T02:30:01.642Z,22.03
2023-04-15T02:31:05.027Z,22.47
2023-04-15T02:32:01.293Z,21.27
2023-04-15T02:33:01.991Z,22.47
2023-04-15T02:34:01.689Z,21.80
2023-04-15T02:35:02.120Z,22.20
2023-04-15T02:36:01.590Z,20.67
2023-04-15T02:37:01.267Z,21.57
2023-04-15T02:38:01.574Z,23.77
2023-04-15T02:39:01.945Z,22.10
2023-04-15T02:40:01.253Z,20.47
2023-04-15T02:41:01.644Z,22.47
2023-04-15T02:42:01.587Z,20.83
2023-04-15T02:43:01.293Z,22.50
2023-04-15T02:44:01.226Z,21.37
2023-04-15T02:45:01.249Z,19.93
2023-04-15T02:46:01.424Z,20.67
2023-04-15T02:47:01.663Z,21.03
2023-04-15T02:48:01.531Z,19.23
2023-04-15T02:49:01.424Z,19.77
2023-04-15T02:50:03.064Z,22.70
2023-04-15T02:51:12.342Z,24.23
2023-04-15T02:52:01.228Z,21.33
2023-04-15T02:53:01.792Z,22.93
2023-04-15T02:54:01.227Z,22.93
2023-04-15T02:55:01.266Z,22.33
2023-04-15T02:56:01.271Z,23.40
2023-04-15T02:57:01.585Z,22.43
2023-04-15T02:58:01.254Z,23.53
2023-04-15T02:59:01.945Z,21.53
2023-04-15T03:00:01.271Z,21.30
2023-04-15T03:01:01.320Z,23.50
2023-04-15T03:02:01.370Z,21.77
2023-04-15T03:03:03.287Z,22.27
2023-04-15T03:04:01.630Z,21.23
2023-04-15T03:05:01.924Z,20.80
2023-04-15T03:06:01.643Z,22.63
2023-04-15T03:07:01.591Z,22.07
2023-04-15T03:08:01.504Z,20.80
2023-04-15T03:09:01.892Z,23.73
2023-04-15T03:10:01.262Z,22.17
2023-04-15T03:11:01.540Z,21.00
2023-04-15T03:12:01.754Z,20.10
2023-04-15T03:13:01.302Z,22.30
2023-04-15T03:14:01.212Z,21.07
2023-04-15T03:15:01.355Z,20.43
2023-04-15T03:16:01.232Z,20.87
2023-04-15T03:17:01.591Z,21.33
2023-04-15T03:18:01.649Z,21.03
2023-04-15T03:19:01.798Z,22.10
2023-04-15T03:20:02.032Z,21.77
2023-04-15T03:21:01.607Z,20.27
2023-04-15T03:22:01.232Z,21.20
2023-04-15T03:23:01.548Z,21.83
2023-04-15T03:24:01.337Z,20.00
2023-04-15T03:25:01.260Z,20.10
2023-04-15T03:26:01.764Z,18.97
2023-04-15T03:27:01.206Z,20.90
2023-04-15T03:28:01.270Z,19.97
2023-04-15T03:29:01.803Z,22.47
2023-04-15T03:30:01.237Z,17.47
2023-04-15T03:31:01.268Z,20.57
2023-04-15T03:32:01.266Z,20.70
2023-04-15T03:33:01.352Z,20.17
2023-04-15T03:34:01.673Z,20.70
2023-04-15T03:35:01.274Z,20.87
2023-04-15T03:36:01.250Z,21.07
2023-04-15T03:37:01.357Z,20.93
2023-04-15T03:38:01.250Z,20.63
2023-04-15T03:39:01.940Z,20.17
2023-04-15T03:40:01.857Z,20.47
2023-04-15T03:41:01.211Z,21.43
2023-04-15T03:42:01.291Z,19.87
2023-04-15T03:43:01.518Z,19.20
2023-04-15T03:44:01.251Z,20.57
2023-04-15T03:45:01.617Z,21.80
2023-04-15T03:46:02.007Z,21.00
2023-04-15T03:47:01.575Z,21.47
2023-04-15T03:48:11.483Z,18.80
2023-04-15T03:49:01.924Z,20.17
2023-04-15T03:50:01.615Z,19.50
2023-04-15T03:51:01.264Z,19.17
2023-04-15T03:52:01.298Z,23.40
2023-04-15T03:53:01.439Z,17.73
2023-04-15T03:54:01.524Z,19.23
2023-04-15T03:55:01.251Z,19.83
2023-04-15T03:56:01.701Z,17.67
2023-04-15T03:57:01.544Z,22.13
2023-04-15T03:58:01.254Z,19.83
2023-04-15T03:59:01.707Z,19.50
2023-04-15T04:00:01.263Z,20.97
2023-04-15T04:01:01.836Z,22.33
2023-04-15T04:02:01.251Z,20.93
2023-04-15T04:03:01.370Z,20.23
2023-04-15T04:04:01.354Z,19.43
2023-04-15T04:05:01.581Z,23.03
2023-04-15T04:06:01.243Z,21.60
2023-04-15T04:07:01.265Z,20.80
2023-04-15T04:08:01.210Z,18.73
2023-04-15T04:09:01.359Z,21.07
2023-04-15T04:10:02.341Z,21.63
2023-04-15T04:11:01.611Z,19.60
2023-04-15T04:12:01.296Z,22.90
2023-04-15T04:13:01.259Z,18.83
2023-04-15T04:14:01.204Z,21.17
2023-04-15T04:15:01.753Z,23.53
2023-04-15T04:16:01.342Z,20.47
2023-04-15T04:17:01.269Z,21.97
2023-04-15T04:18:01.333Z,20.60
2023-04-15T04:19:01.470Z,19.17
2023-04-15T04:20:01.285Z,18.93
2023-04-15T04:21:01.899Z,20.33
2023-04-15T04:22:01.922Z,19.27
2023-04-15T04:23:01.261Z,19.30
2023-04-15T04:24:01.669Z,19.43
2023-04-15T04:25:01.260Z,19.20
2023-04-15T04:26:01.599Z,23.80
2023-04-15T04:27:01.243Z,18.70
2023-04-15T04:28:01.717Z,20.13
2023-04-15T04:29:01.455Z,21.40
2023-04-15T04:30:01.317Z,20.07
2023-04-15T04:31:01.694Z,21.60
2023-04-15T04:32:01.972Z,19.53
2023-04-15T04:33:01.611Z,22.70
2023-04-15T04:34:01.547Z,19.23
2023-04-15T04:35:01.253Z,21.83
2023-04-15T04:36:01.227Z,22.07
2023-04-15T04:37:01.298Z,21.37
2023-04-15T04:38:01.256Z,24.20
2023-04-15T04:39:01.800Z,21.23
2023-04-15T04:40:01.422Z,20.90
2023-04-15T04:41:01.639Z,20.60
2023-04-15T04:42:01.316Z,21.53
2023-04-15T04:43:01.849Z,22.87
2023-04-15T04:44:01.581Z,20.40
2023-04-15T04:45:01.551Z,22.93
2023-04-15T04:46:01.619Z,22.20
2023-04-15T04:47:01.272Z,22.60
2023-04-15T04:48:01.698Z,24.20
2023-04-15T04:49:01.572Z,22.00
2023-04-15T04:50:01.583Z,21.27
2023-04-15T04:51:01.554Z,21.03
2023-04-15T04:52:01.720Z,19.53
2023-04-15T04:53:01.832Z,20.40
2023-04-15T04:54:03.700Z,20.00
2023-04-15T04:55:01.283Z,23.67
2023-04-15T04:56:01.209Z,22.13
2023-04-15T04:57:01.204Z,24.17
2023-04-15T04:58:01.279Z,19.87
2023-04-15T04:59:01.807Z,20.00
2023-04-15T05:00:01.306Z,20.40
2023-04-15T05:01:01.689Z,19.93
2023-04-15T05:02:01.385Z,21.63
2023-04-15T05:03:01.633Z,21.90
2023-04-15T05:04:01.840Z,21.47
2023-04-15T05:05:01.511Z,20.73
2023-04-15T05:06:01.276Z,20.10
2023-04-15T05:07:01.617Z,22.10
2023-04-15T05:08:01.257Z,20.67
2023-04-15T05:09:01.749Z,21.47
2023-04-15T05:10:01.224Z,20.93
2023-04-15T05:11:01.913Z,21.97
2023-04-15T05:12:01.601Z,25.07
2023-04-15T05:13:01.274Z,22.80
2023-04-15T05:14:01.622Z,22.43
2023-04-15T05:15:01.548Z,21.60
2023-04-15T05:16:01.814Z,22.80
2023-04-15T05:17:01.264Z,21.60
2023-04-15T05:18:01.346Z,21.13
2023-04-15T05:19:01.510Z,24.17
2023-04-15T05:20:01.950Z,22.27
2023-04-15T05:21:02.027Z,20.80
2023-04-15T05:22:01.323Z,19.97
2023-04-15T05:23:01.304Z,20.30
2023-04-15T05:24:01.284Z,22.27
2023-04-15T05:25:01.217Z,22.03
2023-04-15T05:26:01.602Z,21.27
2023-04-15T05:27:01.515Z,21.10
2023-04-15T05:28:01.564Z,20.70
2023-04-15T05:29:01.684Z,21.83
2023-04-15T05:30:01.667Z,20.63
2023-04-15T05:31:01.434Z,20.77
2023-04-15T05:32:01.243Z,24.27
2023-04-15T05:33:01.331Z,20.77
2023-04-15T05:34:01.385Z,22.37
2023-04-15T05:35:01.669Z,19.57
2023-04-15T05:36:01.563Z,21.73
2023-04-15T05:37:01.310Z,20.47
2023-04-15T05:38:01.456Z,21.37
2023-04-15T05:39:01.440Z,23.27
2023-04-15T05:40:01.286Z,19.77
2023-04-15T05:41:01.675Z,23.20
2023-04-15T05:42:01.604Z,20.87
2023-04-15T05:43:01.286Z,21.50
2023-04-15T05:44:01.705Z,20.37
2023-04-15T05:45:01.681Z,19.07
2023-04-15T05:46:01.555Z,19.23
2023-04-15T05:47:01.267Z,19.27
2023-04-15T05:48:01.601Z,21.43
2023-04-15T05:49:01.544Z,20.37
2023-04-15T05:50:01.256Z,22.50
2023-04-15T05:51:01.666Z,20.37
2023-04-15T05:52:01.644Z,18.60
2023-04-15T05:53:01.206Z,20.97
2023-04-15T05:54:01.270Z,18.20
2023-04-15T05:55:01.293Z,19.37
2023-04-15T05:56:01.234Z,19.10
2023-04-15T05:57:01.397Z,18.20
2023-04-15T05:58:01.209Z,18.50
2023-04-15T05:59:01.328Z,18.47
2023-04-15T06:00:02.038Z,19.43
2023-04-15T06:01:01.961Z,19.93
2023-04-15T06:02:01.358Z,17.00
2023-04-15T06:03:01.545Z,19.20
2023-04-15T06:04:01.275Z,20.30
2023-04-15T06:05:01.800Z,19.23
2023-04-15T06:06:01.255Z,18.07
2023-04-15T06:07:01.300Z,19.67
2023-04-15T06:08:01.260Z,20.97
2023-04-15T06:09:01.494Z,19.73
2023-04-15T06:10:01.273Z,18.17
2023-04-15T06:11:01.687Z,20.20
2023-04-15T06:12:01.650Z,17.73
2023-04-15T06:13:01.298Z,20.63
2023-04-15T06:14:01.620Z,19.03
2023-04-15T06:15:01.627Z,20.93
2023-04-15T06:16:01.309Z,18.97
2023-04-15T06:17:01.219Z,19.27
2023-04-15T06:18:01.621Z,19.03
2023-04-15T06:19:01.509Z,21.43
2023-04-15T06:20:01.325Z,19.10
2023-04-15T06:21:01.631Z,17.87
2023-04-15T06:22:01.782Z,19.60
2023-04-15T06:23:01.218Z,17.13
2023-04-15T06:24:01.270Z,17.37
2023-04-15T06:25:01.645Z,17.90
2023-04-15T06:26:01.316Z,19.77
2023-04-15T06:27:01.206Z,20.73
2023-04-15T06:28:01.300Z,18.40
2023-04-15T06:29:01.472Z,20.53
2023-04-15T06:30:01.303Z,17.60
2023-04-15T06:31:01.256Z,20.20
2023-04-15T06:32:01.238Z,19.83
2023-04-15T06:33:01.607Z,20.13
2023-04-15T06:34:01.275Z,19.73
2023-04-15T06:35:01.588Z,17.97
2023-04-15T06:36:01.301Z,18.20
2023-04-15T06:37:01.282Z,20.53
2023-04-15T06:38:01.606Z,18.73
2023-04-15T06:39:01.496Z,18.43
2023-04-15T06:40:01.657Z,20.40
2023-04-15T06:41:02.581Z,18.40
2023-04-15T06:42:02.212Z,18.07
2023-04-15T06:43:01.308Z,18.83
2023-04-15T06:44:02.177Z,17.60
2023-04-15T06:45:01.768Z,18.13
2023-04-15T06:46:01.324Z,17.87
2023-04-15T06:47:01.545Z,19.07
2023-04-15T06:48:01.308Z,19.80
2023-04-15T06:49:01.417Z,18.07
2023-04-15T06:50:01.278Z,19.43
2023-04-15T06:51:01.319Z,19.83
2023-04-15T06:52:01.529Z,19.27
2023-04-15T06:53:01.301Z,19.20
2023-04-15T06:54:01.213Z,18.40
2023-04-15T06:55:01.831Z,17.90
2023-04-15T06:56:01.230Z,18.40
2023-04-15T06:57:01.270Z,17.10
2023-04-15T06:58:01.634Z,16.77
2023-04-15T06:59:02.083Z,17.80
2023-04-15T07:00:02.352Z,17.57
2023-04-15T07:01:01.847Z,16.07
2023-04-15T07:02:01.332Z,16.13
2023-04-15T07:03:01.313Z,14.83
2023-04-15T07:04:01.544Z,16.90
2023-04-15T07:05:01.661Z,14.53
2023-04-15T07:06:01.523Z,15.43
2023-04-15T07:07:01.256Z,13.90
2023-04-15T07:08:01.264Z,14.30
2023-04-15T07:09:01.708Z,16.30
2023-04-15T07:10:01.521Z,15.77
2023-04-15T07:11:01.689Z,15.27
2023-04-15T07:12:01.269Z,15.00
2023-04-15T07:13:01.251Z,16.10
2023-04-15T07:14:01.635Z,15.37
2023-04-15T07:15:01.322Z,16.80
2023-04-15T07:16:01.656Z,15.37
2023-04-15T07:17:01.872Z,14.33
2023-04-15T07:18:01.314Z,14.37
2023-04-15T07:19:01.831Z,13.13
2023-04-15T07:20:01.408Z,13.63
2023-04-15T07:21:01.221Z,11.57
2023-04-15T07:22:01.258Z,13.60
2023-04-15T07:23:01.298Z,12.57
2023-04-15T07:24:01.547Z,11.90
2023-04-15T07:25:01.294Z,12.73
2023-04-15T07:26:02.589Z,12.47
2023-04-15T07:27:01.682Z,11.20
2023-04-15T07:28:02.153Z,10.77
2023-04-15T07:29:01.680Z,10.27
2023-04-15T07:30:01.834Z,9.83
2023-04-15T07:31:01.340Z,11.27
2023-04-15T07:32:01.610Z,10.70
2023-04-15T07:33:01.839Z,11.50
2023-04-15T07:34:01.220Z,13.10
2023-04-15T07:35:01.549Z,12.70
2023-04-15T07:36:01.592Z,10.60
2023-04-15T07:37:01.274Z,12.57
2023-04-15T07:38:01.224Z,11.70
2023-04-15T07:39:01.526Z,10.37
2023-04-15T07:40:01.656Z,11.13
2023-04-15T07:41:02.018Z,9.83
2023-04-15T07:42:01.241Z,9.80
2023-04-15T07:43:01.258Z,10.47
2023-04-15T07:44:01.297Z,10.73
2023-04-15T07:45:01.713Z,9.47
2023-04-15T07:46:01.288Z,9.83
2023-04-15T07:47:02.625Z,9.87
2023-04-15T07:48:01.701Z,8.23
2023-04-15T07:49:01.563Z,9.87
2023-04-15T07:50:02.157Z,9.97
2023-04-15T07:51:01.252Z,8.57
2023-04-15T07:52:01.283Z,8.00
2023-04-15T07:53:01.236Z,9.20
2023-04-15T07:54:01.642Z,6.87
2023-04-15T07:55:01.266Z,8.50
2023-04-15T07:56:01.608Z,9.40
2023-04-15T07:57:01.606Z,10.30
2023-04-15T07:58:01.566Z,9.10
2023-04-15T07:59:01.634Z,9.37
2023-04-15T08:00:01.739Z,9.37
2023-04-15T08:01:01.591Z,8.97
2023-04-15T08:02:01.700Z,8.10
2023-04-15T08:03:01.468Z,9.13
2023-04-15T08:04:01.788Z,8.87
2023-04-15T08:05:01.313Z,8.93
2023-04-15T08:06:01.558Z,6.80
2023-04-15T08:07:02.651Z,9.73
2023-04-15T08:08:01.677Z,9.80
2023-04-15T08:09:01.607Z,8.93
2023-04-15T08:10:01.609Z,8.67
2023-04-15T08:11:01.587Z,9.43
2023-04-15T08:12:01.509Z,9.23
2023-04-15T08:13:01.246Z,7.87
2023-04-15T08:14:01.654Z,9.23
2023-04-15T08:15:01.668Z,9.40
2023-04-15T08:16:16.918Z,8.90
2023-04-15T08:17:01.290Z,8.90
2023-04-15T08:18:01.275Z,7.13
2023-04-15T08:19:01.444Z,7.57
2023-04-15T08:20:02.540Z,9.60
2023-04-15T08:21:01.288Z,9.47
2023-04-15T08:22:01.320Z,9.47
2023-04-15T08:23:01.603Z,8.67
2023-04-15T08:24:01.434Z,9.27
2023-04-15T08:25:01.644Z,8.93
2023-04-15T08:26:01.560Z,9.50
2023-04-15T08:27:02.409Z,9.50
2023-04-15T08:28:04.119Z,8.13
2023-04-15T08:29:01.432Z,7.63
2023-04-15T08:30:04.159Z,9.53
2023-04-15T08:31:01.298Z,10.87
2023-04-15T08:32:01.935Z,11.03
2023-04-15T08:33:01.377Z,8.23
2023-04-15T08:34:01.533Z,9.63
2023-04-15T08:35:01.613Z,9.47
2023-04-15T08:36:01.598Z,9.27
2023-04-15T08:37:01.542Z,10.30
2023-04-15T08:38:01.207Z,10.17
2023-04-15T08:39:01.583Z,8.63
2023-04-15T08:40:01.555Z,9.50
2023-04-15T08:41:07.152Z,9.67
2023-04-15T08:42:03.055Z,8.93
2023-04-15T08:43:04.568Z,8.40
2023-04-15T08:44:04.649Z,8.80
2023-04-15T08:45:03.888Z,10.03
2023-04-15T08:46:03.362Z,8.93
2023-04-15T08:47:03.237Z,10.23
2023-04-15T08:48:05.295Z,8.70
2023-04-15T08:49:04.067Z,10.70
2023-04-15T08:50:03.554Z,9.53
2023-04-15T08:51:01.941Z,7.83
2023-04-15T08:52:02.452Z,9.37
2023-04-15T08:53:01.622Z,8.13
2023-04-15T08:54:03.123Z,8.57
2023-04-15T08:55:02.556Z,9.87
2023-04-15T08:56:04.257Z,11.33
2023-04-15T08:57:02.368Z,9.73
2023-04-15T08:58:02.078Z,9.83
2023-04-15T08:59:01.896Z,9.77
2023-04-15T09:00:03.982Z,7.17
2023-04-15T09:01:02.128Z,8.33
2023-04-15T09:02:02.840Z,8.83
2023-04-15T09:03:01.709Z,8.47
2023-04-15T09:04:02.838Z,9.77
2023-04-15T09:05:01.769Z,9.47
2023-04-15T09:06:04.082Z,8.87
2023-04-15T09:07:01.494Z,9.27
2023-04-15T09:08:02.155Z,8.83
2023-04-15T09:09:01.547Z,8.17
2023-04-15T09:10:03.105Z,7.97
2023-04-15T09:11:02.115Z,8.20
2023-04-15T09:12:01.245Z,8.10
2023-04-15T09:13:01.355Z,8.83
2023-04-15T09:14:01.285Z,9.10
2023-04-15T09:15:02.172Z,8.13
2023-04-15T09:16:02.039Z,8.47
2023-04-15T09:17:03.178Z,8.67
2023-04-15T09:18:01.469Z,8.53
2023-04-15T09:19:19.875Z,9.07
2023-04-15T09:20:10.416Z,9.50
2023-04-15T09:21:05.724Z,9.20
2023-04-15T09:22:01.874Z,9.23
2023-04-15T09:23:12.008Z,8.37
2023-04-15T09:24:01.947Z,7.83
2023-04-15T09:25:01.684Z,8.13
2023-04-15T09:26:01.894Z,9.43
2023-04-15T09:27:01.488Z,8.83
2023-04-15T09:28:01.889Z,8.57
2023-04-15T09:29:04.312Z,8.83
2023-04-15T09:30:01.275Z,7.93
2023-04-15T09:31:02.046Z,7.40
2023-04-15T09:32:11.967Z,8.27
2023-04-15T09:33:03.199Z,9.27
2023-04-15T09:34:01.919Z,8.00
2023-04-15T09:35:10.266Z,10.07
2023-04-15T09:36:03.269Z,10.33
2023-04-15T09:37:01.589Z,9.10
2023-04-15T09:38:03.804Z,8.70
2023-04-15T09:39:01.617Z,9.37
2023-04-15T09:40:01.755Z,10.47
2023-04-15T09:41:01.260Z,9.93
2023-04-15T09:42:05.927Z,9.40
2023-04-15T09:43:01.902Z,10.37
2023-04-15T09:44:01.522Z,9.27
2023-04-15T09:45:08.460Z,7.90
2023-04-15T09:46:01.313Z,9.47
2023-04-15T09:47:01.218Z,9.10
2023-04-15T09:48:16.185Z,9.43
2023-04-15T09:49:07.809Z,10.60
2023-04-15T09:50:01.828Z,8.70
2023-04-15T09:51:01.863Z,9.67
2023-04-15T09:52:06.119Z,10.37
2023-04-15T09:53:03.160Z,8.87
2023-04-15T09:54:01.808Z,10.27
2023-04-15T09:55:01.262Z,10.20
2023-04-15T09:56:02.334Z,11.10
2023-04-15T09:57:05.477Z,10.60
2023-04-15T09:58:01.225Z,10.73
2023-04-15T09:59:01.538Z,8.37
2023-04-15T10:00:01.534Z,11.03
2023-04-15T10:01:03.979Z,10.90
2023-04-15T10:02:04.484Z,9.83
2023-04-15T10:03:03.410Z,10.77
2023-04-15T10:04:04.187Z,10.93
2023-04-15T10:05:02.710Z,10.93
2023-04-15T10:06:01.968Z,9.93
2023-04-15T10:07:04.031Z,11.80
2023-04-15T10:08:02.253Z,9.07
2023-04-15T10:09:01.993Z,10.00
2023-04-15T10:10:03.478Z,10.33
2023-04-15T10:11:02.340Z,10.60
2023-04-15T10:12:02.434Z,10.67
2023-04-15T10:13:01.581Z,8.73
2023-04-15T10:14:02.608Z,10.87
2023-04-15T10:15:04.708Z,11.37
2023-04-15T10:16:05.926Z,10.37
2023-04-15T10:17:02.741Z,10.87
2023-04-15T10:18:04.584Z,11.37
2023-04-15T10:19:01.734Z,9.47
2023-04-15T10:20:02.874Z,11.27
2023-04-15T10:21:01.633Z,9.60
2023-04-15T10:22:01.490Z,10.63
2023-04-15T10:23:02.084Z,11.43
2023-04-15T10:24:04.096Z,9.57
2023-04-15T10:25:02.391Z,9.13
2023-04-15T10:26:03.557Z,9.47
2023-04-15T10:27:02.986Z,10.20
2023-04-15T10:28:02.118Z,12.00
2023-04-15T10:29:02.195Z,10.13
2023-04-15T10:30:02.303Z,10.77
2023-04-15T10:31:01.740Z,9.23
2023-04-15T10:32:02.797Z,12.23
2023-04-15T10:33:03.559Z,11.10
2023-04-15T10:34:02.076Z,9.43
2023-04-15T10:35:02.301Z,10.50
2023-04-15T10:36:01.904Z,10.67
2023-04-15T10:37:02.339Z,9.47
2023-04-15T10:38:01.845Z,9.83
2023-04-15T10:39:01.275Z,11.30
2023-04-15T10:40:20.675Z,9.83
2023-04-15T10:41:13.069Z,8.50
2023-04-15T10:42:10.534Z,9.47
2023-04-15T10:43:02.475Z,10.57
2023-04-15T10:44:03.419Z,9.93
2023-04-15T10:45:01.665Z,10.43
2023-04-15T10:46:01.491Z,9.33
2023-04-15T10:47:09.019Z,10.97
2023-04-15T10:48:03.884Z,8.43
2023-04-15T10:49:07.820Z,9.90
2023-04-15T10:50:01.716Z,10.40
2023-04-15T10:51:01.605Z,10.40
2023-04-15T10:52:01.478Z,11.17
2023-04-15T10:53:03.154Z,9.27
2023-04-15T10:54:01.265Z,10.40
2023-04-15T10:55:03.255Z,8.70
2023-04-15T10:56:04.111Z,8.40
2023-04-15T10:57:08.769Z,10.00
2023-04-15T10:58:02.122Z,9.07
2023-04-15T10:59:04.326Z,8.97
2023-04-15T11:00:11.767Z,9.10
2023-04-15T11:01:01.646Z,8.83
2023-04-15T11:02:03.639Z,8.03
2023-04-15T11:03:06.465Z,9.63
2023-04-15T11:04:02.055Z,8.70
2023-04-15T11:05:01.619Z,10.30
2023-04-15T11:06:01.401Z,8.47
2023-04-15T11:07:07.140Z,9.80
2023-04-15T11:08:01.785Z,10.03
2023-04-15T11:09:01.352Z,8.93
2023-04-15T11:10:02.071Z,7.23
2023-04-15T11:11:01.227Z,10.50
2023-04-15T11:12:05.320Z,7.73
2023-04-15T11:13:03.159Z,8.87
2023-04-15T11:14:02.360Z,9.53
2023-04-15T11:15:20.705Z,8.20
2023-04-15T11:16:02.370Z,8.47
2023-04-15T11:17:01.244Z,10.87
2023-04-15T11:18:09.615Z,9.30
2023-04-15T11:19:01.490Z,7.27
2023-04-15T11:20:01.880Z,8.77
2023-04-15T11:21:04.278Z,9.93
2023-04-15T11:22:05.826Z,9.43
2023-04-15T11:23:14.042Z,9.37
2023-04-15T11:24:02.372Z,8.63
2023-04-15T11:25:01.207Z,9.83
2023-04-15T11:26:03.229Z,8.57
2023-04-15T11:27:01.490Z,7.67
2023-04-15T11:28:01.784Z,8.97
2023-04-15T11:29:01.760Z,9.73
2023-04-15T11:30:11.380Z,10.87
2023-04-15T11:31:07.043Z,10.10
2023-04-15T11:32:05.811Z,14.30
2023-04-15T11:33:03.969Z,10.60
2023-04-15T11:34:01.990Z,10.77
2023-04-15T11:35:01.286Z,8.97
2023-04-15T11:36:01.394Z,10.43
2023-04-15T11:37:04.172Z,10.93
2023-04-15T11:38:02.827Z,12.77
2023-04-15T11:39:01.286Z,13.70
2023-04-15T11:40:02.192Z,13.50
2023-04-15T11:41:02.001Z,13.10
2023-04-15T11:42:01.402Z,13.67
2023-04-15T11:43:06.670Z,14.77
2023-04-15T11:44:01.825Z,14.50
2023-04-15T11:45:06.736Z,13.60
2023-04-15T11:46:02.500Z,14.50
2023-04-15T11:47:01.241Z,13.53
2023-04-15T11:48:06.096Z,13.40
2023-04-15T11:49:01.666Z,12.70
2023-04-15T11:50:14.764Z,13.93
2023-04-15T11:51:03.202Z,13.60
2023-04-15T11:52:09.920Z,13.10
2023-04-15T11:53:03.000Z,12.73
2023-04-15T11:54:02.013Z,13.87
2023-04-15T11:55:03.262Z,12.70
2023-04-15T11:56:01.305Z,13.47
2023-04-15T11:57:01.617Z,14.97
2023-04-15T11:58:09.627Z,12.10
2023-04-15T11:59:02.216Z,12.70
2023-04-15T12:00:01.214Z,11.97
2023-04-15T12:01:01.740Z,14.23
2023-04-15T12:02:11.240Z,13.67
2023-04-15T12:03:11.878Z,11.00
2023-04-15T12:04:02.098Z,13.10
2023-04-15T12:05:03.088Z,12.47
2023-04-15T12:06:03.874Z,12.40
2023-04-15T12:07:04.458Z,11.83
2023-04-15T12:08:01.610Z,13.13
2023-04-15T12:09:07.926Z,13.47
2023-04-15T12:10:02.393Z,11.30
2023-04-15T12:11:01.428Z,12.57
2023-04-15T12:12:01.217Z,12.13
2023-04-15T12:13:05.974Z,11.80
2023-04-15T12:14:05.767Z,10.23
2023-04-15T12:15:01.573Z,12.60
2023-04-15T12:16:02.922Z,12.27
2023-04-15T12:17:02.909Z,12.23
2023-04-15T12:18:01.302Z,11.63
2023-04-15T12:19:09.814Z,11.23
2023-04-15T12:20:01.280Z,10.67
2023-04-15T12:21:08.371Z,10.60
2023-04-15T12:22:03.507Z,13.70
2023-04-15T12:23:05.070Z,10.97
2023-04-15T12:24:04.286Z,11.00
2023-04-15T12:25:01.435Z,11.20
2023-04-15T12:26:04.477Z,12.57
2023-04-15T12:27:03.263Z,11.10
2023-04-15T12:28:01.287Z,12.93
2023-04-15T12:29:03.127Z,11.53
2023-04-15T12:30:05.888Z,9.90
2023-04-15T12:31:07.018Z,11.13
2023-04-15T12:32:06.276Z,12.43
2023-04-15T12:33:02.419Z,10.07
2023-04-15T12:34:02.596Z,11.10
2023-04-15T12:35:01.221Z,11.07
2023-04-15T12:36:02.475Z,10.60
2023-04-15T12:37:02.594Z,10.83
2023-04-15T12:38:01.220Z,11.97
2023-04-15T12:39:01.863Z,11.40
2023-04-15T12:40:01.324Z,13.53
2023-04-15T12:41:01.563Z,11.00
2023-04-15T12:42:02.290Z,10.03
2023-04-15T12:43:01.607Z,11.10
2023-04-15T12:44:01.449Z,13.17
2023-04-15T12:45:01.338Z,11.47
2023-04-15T12:46:01.318Z,11.03
2023-04-15T12:47:02.271Z,10.73
2023-04-15T12:48:01.273Z,10.93
2023-04-15T12:49:01.226Z,14.13
2023-04-15T12:50:01.271Z,11.63
2023-04-15T12:51:01.614Z,11.93
2023-04-15T12:52:02.730Z,11.10
2023-04-15T12:53:02.383Z,11.67
2023-04-15T12:54:01.362Z,11.13
2023-04-15T12:55:01.270Z,11.40
2023-04-15T12:56:01.622Z,11.97
2023-04-15T12:57:01.256Z,10.17
2023-04-15T12:58:01.501Z,12.47